Terminal Aerodrome Forecast
Issued by NWS Burlington, VT

Home | Current Version | Previous Version | Text Only | Print | Product List | Glossary On
Versions: 1 2 3 4 5 6 7 8 9 10 11 12 13 14 15 16 17 18 19 20 21 22 23 24 25 26 27
000
FTUS41 KBTV 230535
TAFBTV
TAF
KBTV 230535Z 2306/2406 VRB03KT P6SM SCT005 OVC025
      TEMPO 2306/2310 5SM BR OVC005
     FM231000 12005KT P6SM OVC025
     FM240000 07006KT P6SM VCSH OVC040
     FM240300 07006KT 5SM -SN BR OVC025=

USA.gov is the U.S. government's official web portal to all federal, state and local government web resources and services.